createdAt,value
2019-02-26T00:00:44.973Z,5.50
2019-02-26T00:02:46.536Z,5.40
2019-02-26T00:04:49.142Z,5.30
2019-02-26T00:06:53.557Z,5.30
2019-02-26T00:08:58.209Z,5.60
2019-02-26T00:11:00.798Z,5.90
2019-02-26T00:13:02.483Z,6.10
2019-02-26T00:15:05.785Z,6.10
2019-02-26T00:17:10.578Z,6.00
2019-02-26T00:19:11.953Z,6.00
2019-02-26T00:21:14.845Z,5.80
2019-02-26T00:23:16.560Z,5.80
2019-02-26T00:25:20.346Z,5.70
2019-02-26T00:27:23.457Z,5.60
2019-02-26T00:29:27.613Z,5.60
2019-02-26T00:31:30.442Z,5.60
2019-02-26T00:33:32.423Z,5.50
2019-02-26T00:35:34.225Z,5.40
2019-02-26T00:37:36.029Z,5.50
2019-02-26T00:39:37.744Z,5.60
2019-02-26T00:41:40.313Z,5.70
2019-02-26T00:43:42.284Z,5.90
2019-02-26T00:45:44.005Z,6.10
2019-02-26T00:47:46.139Z,6.20
2019-02-26T00:49:48.551Z,6.30
2019-02-26T00:51:52.770Z,6.40
2019-02-26T00:53:55.077Z,6.30
2019-02-26T00:55:59.389Z,6.10
2019-02-26T00:58:03.360Z,6.20
2019-02-26T01:00:09.928Z,6.10
2019-02-26T01:02:11.838Z,5.90
2019-02-26T01:04:13.696Z,6.00
2019-02-26T01:06:15.381Z,6.10
2019-02-26T01:08:17.919Z,6.20
2019-02-26T01:10:21.688Z,6.30
2019-02-26T01:12:25.294Z,6.20
2019-02-26T01:14:28.398Z,6.20
2019-02-26T01:16:30.293Z,6.10
2019-02-26T01:18:32.003Z,5.90
2019-02-26T01:20:33.710Z,5.80
2019-02-26T01:22:37.654Z,5.60
2019-02-26T01:24:39.065Z,5.40
2019-02-26T01:26:42.837Z,5.10
2019-02-26T01:28:48.301Z,5.00
2019-02-26T01:30:48.919Z,4.80
2019-02-26T01:32:51.636Z,4.80
2019-02-26T01:34:53.479Z,4.90
2019-02-26T01:36:55.181Z,5.00
2019-02-26T01:38:56.886Z,5.20
2019-02-26T01:40:58.595Z,5.30
2019-02-26T01:43:01.116Z,5.40
2019-02-26T01:45:05.478Z,5.60
2019-02-26T01:47:07.182Z,5.90
2019-02-26T01:49:08.900Z,6.10
2019-02-26T01:51:10.620Z,6.00
2019-02-26T01:53:14.427Z,6.00
2019-02-26T01:55:17.874Z,6.00
2019-02-26T01:57:19.689Z,6.00
2019-02-26T01:59:21.426Z,5.80
2019-02-26T02:01:23.885Z,5.70
2019-02-26T02:03:28.022Z,5.50
2019-02-26T02:05:31.405Z,5.40
2019-02-26T02:07:33.269Z,5.20
2019-02-26T02:09:34.982Z,5.10
2019-02-26T02:11:38.124Z,4.90
2019-02-26T02:13:41.256Z,4.90
2019-02-26T02:15:44.440Z,4.70
2019-02-26T02:17:47.684Z,4.90
2019-02-26T02:19:49.397Z,5.10
2019-02-26T02:21:51.607Z,5.20
2019-02-26T02:23:54.764Z,5.40
2019-02-26T02:25:59.657Z,5.50
2019-02-26T02:28:02.133Z,5.60
2019-02-26T02:30:06.328Z,5.70
2019-02-26T02:32:08.536Z,5.70
2019-02-26T02:34:10.255Z,5.70
2019-02-26T02:36:14.762Z,5.60
2019-02-26T02:38:19.493Z,5.60
2019-02-26T02:40:19.194Z,5.70
2019-02-26T02:42:21.998Z,5.80
2019-02-26T02:44:25.580Z,5.70
2019-02-26T02:46:27.495Z,5.80
2019-02-26T02:48:29.210Z,5.90
2019-02-26T02:50:30.924Z,6.00
2019-02-26T02:52:35.117Z,6.00
2019-02-26T02:54:38.432Z,6.00
2019-02-26T02:56:41.871Z,5.90
2019-02-26T02:58:44.273Z,5.80
2019-02-26T03:00:49.382Z,5.80
2019-02-26T03:02:53.047Z,5.90
2019-02-26T03:04:54.717Z,6.00
2019-02-26T03:06:58.738Z,6.10
2019-02-26T03:09:00.156Z,6.10
2019-02-26T03:11:01.869Z,6.00
2019-02-26T03:13:03.666Z,6.10
2019-02-26T03:15:08.065Z,6.00
2019-02-26T03:17:11.506Z,6.10
2019-02-26T03:19:15.182Z,6.10
2019-02-26T03:21:20.169Z,6.00
2019-02-26T03:23:21.636Z,6.00
2019-02-26T03:25:26.199Z,6.10
2019-02-26T03:27:28.366Z,6.10
2019-02-26T03:29:31.082Z,6.20
2019-02-26T03:31:35.292Z,6.20
2019-02-26T03:33:36.654Z,6.20
2019-02-26T03:35:38.382Z,6.20
2019-02-26T03:37:40.315Z,6.20
2019-02-26T03:39:42.033Z,6.20
2019-02-26T03:41:45.824Z,6.30
2019-02-26T03:43:47.729Z,6.30
2019-02-26T03:45:49.430Z,6.10
2019-02-26T03:47:51.274Z,6.10
2019-02-26T03:49:52.989Z,6.10
2019-02-26T03:51:59.110Z,6.10
2019-02-26T03:53:58.347Z,6.20
2019-02-26T03:56:04.325Z,6.20
2019-02-26T03:58:03.966Z,6.20
2019-02-26T04:00:08.633Z,6.30
2019-02-26T04:02:11.920Z,6.20
2019-02-26T04:04:14.317Z,6.20
2019-02-26T04:06:16.242Z,6.20
2019-02-26T04:08:20.080Z,6.30
2019-02-26T04:10:22.398Z,6.30
2019-02-26T04:12:24.115Z,6.30
2019-02-26T04:14:28.266Z,6.30
2019-02-26T04:16:30.294Z,6.30
2019-02-26T04:18:34.790Z,6.10
2019-02-26T04:20:36.728Z,6.00
2019-02-26T04:22:42.246Z,6.10
2019-02-26T04:24:42.200Z,6.10
2019-02-26T04:27:18.562Z,6.10
2019-02-26T04:29:44.055Z,6.20
2019-02-26T04:32:15.946Z,6.30
2019-02-26T04:34:51.443Z,6.20
2019-02-26T04:37:32.829Z,6.20
2019-02-26T04:39:44.674Z,6.30
2019-02-26T04:42:14.127Z,6.30
2019-02-26T04:44:42.125Z,6.40
2019-02-26T04:46:48.499Z,6.00
2019-02-26T04:48:51.217Z,5.80
2019-02-26T04:50:53.037Z,5.70
2019-02-26T04:52:58.334Z,5.60
2019-02-26T04:54:58.379Z,5.60
2019-02-26T04:57:00.309Z,5.60
2019-02-26T04:59:03.473Z,5.50
2019-02-26T05:01:08.004Z,5.30
2019-02-26T05:03:11.884Z,5.30
2019-02-26T05:05:13.217Z,5.40
2019-02-26T05:07:17.343Z,5.50
2019-02-26T05:09:18.788Z,5.70
2019-02-26T05:11:31.354Z,5.70
2019-02-26T05:13:25.250Z,5.80
2019-02-26T05:15:31.115Z,5.70
2019-02-26T05:17:33.243Z,5.70
2019-02-26T05:19:36.517Z,5.80
2019-02-26T05:21:38.881Z,5.80
2019-02-26T05:23:40.582Z,5.80
2019-02-26T05:25:44.737Z,5.80
2019-02-26T05:27:48.129Z,5.70
2019-02-26T05:29:51.992Z,5.60
2019-02-26T05:31:55.441Z,5.50
2019-02-26T05:33:57.730Z,5.10
2019-02-26T05:36:00.581Z,4.90
2019-02-26T05:38:06.028Z,4.60
2019-02-26T05:40:09.050Z,4.40
2019-02-26T05:42:10.030Z,4.30
2019-02-26T05:44:11.768Z,4.20
2019-02-26T05:46:15.703Z,4.10
2019-02-26T05:48:18.620Z,4.00
2019-02-26T05:50:20.814Z,4.00
2019-02-26T05:52:24.381Z,4.00
2019-02-26T05:54:26.293Z,3.90
2019-02-26T05:56:28.189Z,3.90
2019-02-26T05:58:29.898Z,3.90
2019-02-26T06:00:33.321Z,3.90
2019-02-26T06:02:37.409Z,3.90
2019-02-26T06:04:41.041Z,3.90
2019-02-26T06:09:22.258Z,3.70
2019-02-26T06:11:23.433Z,3.70
2019-02-26T06:13:25.255Z,3.80
2019-02-26T06:15:28.895Z,3.70
2019-02-26T06:17:30.706Z,3.70
2019-02-26T06:19:45.002Z,3.80
2019-02-26T06:21:49.157Z,4.00
2019-02-26T06:23:53.492Z,4.30
2019-02-26T06:25:58.133Z,4.40
2019-02-26T06:28:02.298Z,4.30
2019-02-26T06:30:06.532Z,4.30
2019-02-26T06:32:12.625Z,4.40
2019-02-26T06:34:16.343Z,4.60
2019-02-26T06:36:19.351Z,4.70
2019-02-26T06:38:23.449Z,5.00
2019-02-26T06:40:26.061Z,5.10
2019-02-26T06:42:28.341Z,5.30
2019-02-26T06:44:31.373Z,5.40
2019-02-26T06:46:33.686Z,5.50
2019-02-26T06:48:37.185Z,5.60
2019-02-26T06:50:41.083Z,5.60
2019-02-26T06:52:44.736Z,5.70
2019-02-26T06:54:50.794Z,5.80
2019-02-26T06:56:51.153Z,6.00
2019-02-26T06:58:53.669Z,6.10
2019-02-26T07:00:56.953Z,6.30
2019-02-26T07:03:00.140Z,6.40
2019-02-26T07:05:02.657Z,6.30
2019-02-26T07:07:06.789Z,6.20
2019-02-26T07:09:08.736Z,6.30
2019-02-26T07:11:11.995Z,6.50
2019-02-26T07:13:14.129Z,6.70
2019-02-26T07:15:16.259Z,6.90
2019-02-26T07:17:19.494Z,7.20
2019-02-26T07:19:21.385Z,7.20
2019-02-26T07:21:23.110Z,7.20
2019-02-26T07:23:24.844Z,7.30
2019-02-26T07:25:26.566Z,7.30
2019-02-26T07:27:28.833Z,7.40
2019-02-26T07:29:35.165Z,7.40
2019-02-26T07:31:35.644Z,7.50
2019-02-26T07:33:39.476Z,7.60
2019-02-26T07:35:40.997Z,7.80
2019-02-26T07:37:43.177Z,7.80
2019-02-26T07:39:46.775Z,7.80
2019-02-26T07:41:49.389Z,7.70
2019-02-26T07:43:54.577Z,7.40
2019-02-26T07:45:56.013Z,7.30
2019-02-26T07:47:58.369Z,7.20
2019-02-26T07:50:04.036Z,7.00
2019-02-26T07:52:06.663Z,6.90
2019-02-26T07:54:08.897Z,6.80
2019-02-26T07:56:10.609Z,6.70
2019-02-26T07:58:13.751Z,6.80
2019-02-26T08:00:18.024Z,7.00
2019-02-26T08:02:19.752Z,7.10
2019-02-26T08:04:21.444Z,7.30
2019-02-26T08:06:23.189Z,7.20
2019-02-26T08:08:24.877Z,7.20
2019-02-26T08:10:26.782Z,7.30
2019-02-26T08:12:30.450Z,7.40
2019-02-26T08:14:32.228Z,7.40
2019-02-26T08:16:33.945Z,7.50
2019-02-26T08:18:35.780Z,7.50
2019-02-26T08:20:40.180Z,7.70
2019-02-26T08:22:41.953Z,7.90
2019-02-26T08:24:45.580Z,8.00
2019-02-26T08:26:49.282Z,8.00
2019-02-26T08:28:51.105Z,8.10
2019-02-26T08:30:54.680Z,8.10
2019-02-26T08:32:58.950Z,8.20
2019-02-26T08:35:00.369Z,8.30
2019-02-26T08:37:02.165Z,8.60
2019-02-26T08:39:06.068Z,8.90
2019-02-26T08:41:07.776Z,9.20
2019-02-26T08:43:09.508Z,9.30
2019-02-26T08:45:15.102Z,9.40
2019-02-26T08:47:19.135Z,9.20
2019-02-26T08:49:22.148Z,9.00
2019-02-26T08:51:24.333Z,9.10
2019-02-26T08:53:26.662Z,9.30
2019-02-26T08:55:29.773Z,9.60
2019-02-26T08:57:31.770Z,9.70
2019-02-26T08:59:33.469Z,9.90
2019-02-26T09:01:35.169Z,10.10
2019-02-26T09:03:40.814Z,10.10
2019-02-26T09:05:40.701Z,10.30
2019-02-26T09:07:43.352Z,10.60
2019-02-26T09:09:48.085Z,10.60
2019-02-26T09:11:50.947Z,10.60
2019-02-26T09:13:53.521Z,10.70
2019-02-26T09:15:56.344Z,11.00
2019-02-26T09:17:58.946Z,11.30
2019-02-26T09:20:09.438Z,11.60
2019-02-26T09:22:04.288Z,11.60
2019-02-26T09:24:07.680Z,11.60
2019-02-26T09:26:09.611Z,11.90
2019-02-26T09:28:11.312Z,11.60
2019-02-26T09:30:16.160Z,11.50
2019-02-26T09:32:18.262Z,11.90
2019-02-26T09:34:20.264Z,12.40
2019-02-26T09:36:23.718Z,12.80
2019-02-26T09:38:25.816Z,12.90
2019-02-26T09:40:29.010Z,13.00
2019-02-26T09:42:32.439Z,13.20
2019-02-26T09:44:35.913Z,13.50
2019-02-26T09:46:39.331Z,13.70
2019-02-26T09:48:43.359Z,13.80
2019-02-26T09:50:46.382Z,14.00
2019-02-26T09:52:50.285Z,14.10
2019-02-26T09:54:52.994Z,13.90
2019-02-26T09:56:55.734Z,13.90
2019-02-26T09:58:57.432Z,13.90
2019-02-26T10:00:59.165Z,14.10
2019-02-26T10:03:02.641Z,14.40
2019-02-26T10:05:06.378Z,14.50
2019-02-26T10:07:09.886Z,14.60
2019-02-26T10:09:14.021Z,14.80
2019-02-26T10:11:16.172Z,14.70
2019-02-26T10:13:20.976Z,14.80
2019-02-26T10:15:22.927Z,15.00
2019-02-26T10:17:24.617Z,14.90
2019-02-26T10:19:26.419Z,14.70
2019-02-26T10:21:28.109Z,14.60
2019-02-26T10:23:33.081Z,14.60
2019-02-26T10:25:35.010Z,14.90
2019-02-26T10:27:38.828Z,15.20
2019-02-26T10:29:42.995Z,15.50
2019-02-26T10:31:44.445Z,15.90
2019-02-26T10:33:48.266Z,15.90
2019-02-26T10:35:49.945Z,16.30
2019-02-26T10:37:52.714Z,16.70
2019-02-26T10:39:54.891Z,16.80
2019-02-26T10:41:56.909Z,17.20
2019-02-26T10:43:59.040Z,17.60
2019-02-26T10:46:01.008Z,17.90
2019-02-26T10:48:02.914Z,18.20
2019-02-26T10:50:07.006Z,18.40
2019-02-26T10:52:10.936Z,18.50
2019-02-26T10:54:16.979Z,18.70
2019-02-26T10:56:16.049Z,18.90
2019-02-26T10:58:17.777Z,19.20
2019-02-26T11:00:22.601Z,19.30
2019-02-26T11:02:27.904Z,19.60
2019-02-26T11:04:34.628Z,19.50
2019-02-26T11:06:35.799Z,19.60
2019-02-26T11:08:36.782Z,19.80
2019-02-26T11:10:41.388Z,19.80
2019-02-26T11:12:42.384Z,20.10
2019-02-26T11:14:44.440Z,20.60
2019-02-26T11:16:46.160Z,21.00
2019-02-26T11:18:47.854Z,21.00
2019-02-26T11:20:50.320Z,21.40
2019-02-26T11:22:53.296Z,21.70
2019-02-26T11:24:56.105Z,21.60
2019-02-26T11:26:58.627Z,21.90
2019-02-26T11:29:00.427Z,22.10
2019-02-26T11:31:02.684Z,22.20
2019-02-26T11:33:06.109Z,22.60
2019-02-26T11:35:09.801Z,22.90
2019-02-26T11:37:11.521Z,23.10
2019-02-26T11:39:13.354Z,23.00
2019-02-26T11:41:15.129Z,23.20
2019-02-26T11:43:20.055Z,23.10
2019-02-26T11:45:20.838Z,23.00
2019-02-26T11:47:22.525Z,23.40
2019-02-26T11:49:24.349Z,23.60
2019-02-26T11:51:26.083Z,23.70
2019-02-26T11:53:29.847Z,24.10
2019-02-26T11:55:32.460Z,24.30
2019-02-26T11:57:37.207Z,24.20
2019-02-26T11:59:41.065Z,24.00
2019-02-26T12:01:43.155Z,24.20
2019-02-26T12:03:44.900Z,24.60
2019-02-26T12:05:46.732Z,24.60
2019-02-26T12:07:49.294Z,24.80
2019-02-26T12:09:52.107Z,24.60
2019-02-26T12:11:53.839Z,24.90
2019-02-26T12:13:55.572Z,25.10
2019-02-26T12:15:57.277Z,25.20
2019-02-26T12:17:59.080Z,25.10
2019-02-26T12:20:00.793Z,24.80
2019-02-26T12:22:03.532Z,25.00
2019-02-26T12:24:08.905Z,25.40
2019-02-26T12:26:10.053Z,25.50
2019-02-26T12:28:13.713Z,26.20
2019-02-26T12:30:18.095Z,26.50
2019-02-26T12:32:24.925Z,26.70
2019-02-26T12:34:27.666Z,26.80
2019-02-26T12:36:30.447Z,27.00
2019-02-26T12:38:36.563Z,27.00
2019-02-26T12:40:38.003Z,26.90
2019-02-26T12:42:40.577Z,26.90
2019-02-26T12:44:45.221Z,26.90
2019-02-26T12:46:47.820Z,27.20
2019-02-26T12:48:50.329Z,27.40
2019-02-26T12:50:55.382Z,27.60
2019-02-26T12:55:00.699Z,27.60
2019-02-26T12:57:04.267Z,27.50
2019-02-26T12:59:07.631Z,27.70
2019-02-26T13:01:09.480Z,27.60
2019-02-26T13:03:12.885Z,27.80
2019-02-26T13:05:17.450Z,27.50
2019-02-26T13:07:19.466Z,27.20
2019-02-26T13:09:26.462Z,27.30
2019-02-26T13:11:25.239Z,27.50
2019-02-26T13:13:27.048Z,27.70
2019-02-26T13:15:28.854Z,27.60
2019-02-26T13:17:32.379Z,27.50
2019-02-26T13:19:36.823Z,27.80
2019-02-26T13:21:42.801Z,27.90
2019-02-26T13:23:41.489Z,28.20
2019-02-26T13:25:43.239Z,27.50
2019-02-26T13:27:47.312Z,27.50
2019-02-26T13:31:56.566Z,28.50
2019-02-26T13:33:56.432Z,28.80
2019-02-26T13:38:02.178Z,28.70
2019-02-26T13:40:06.803Z,28.40
2019-02-26T13:42:13.153Z,28.50
2019-02-26T13:44:12.644Z,28.50
2019-02-26T13:46:14.444Z,28.70
2019-02-26T13:48:18.243Z,28.90
2019-02-26T13:50:22.341Z,28.10
2019-02-26T13:52:24.162Z,28.00
2019-02-26T13:54:25.853Z,28.30
2019-02-26T13:56:27.765Z,28.60
2019-02-26T13:58:29.781Z,28.50
2019-02-26T14:00:31.897Z,28.40
2019-02-26T14:02:33.738Z,28.50
2019-02-26T14:04:35.437Z,28.10
2019-02-26T14:06:37.147Z,27.90
2019-02-26T14:08:39.213Z,27.70
2019-02-26T14:10:41.205Z,27.20
2019-02-26T14:12:42.938Z,26.70
2019-02-26T14:14:44.785Z,26.30
2019-02-26T14:16:46.569Z,25.90
2019-02-26T14:18:48.348Z,26.30
2019-02-26T14:20:50.401Z,26.60
2019-02-26T14:22:52.202Z,26.90
2019-02-26T14:24:53.900Z,26.80
2019-02-26T14:26:55.916Z,26.00
2019-02-26T14:28:57.614Z,25.90
2019-02-26T14:30:59.321Z,25.10
2019-02-26T14:33:01.280Z,25.20
2019-02-26T14:35:03.972Z,25.60
2019-02-26T14:37:05.694Z,25.70
2019-02-26T14:39:09.123Z,25.10
2019-02-26T14:41:10.821Z,24.30
2019-02-26T14:43:12.613Z,24.40
2019-02-26T14:45:14.689Z,24.60
2019-02-26T14:47:16.381Z,24.50
2019-02-26T14:49:18.098Z,24.30
2019-02-26T14:51:19.818Z,24.40
2019-02-26T14:53:21.878Z,24.80
2019-02-26T14:55:23.636Z,25.20
2019-02-26T14:57:25.334Z,25.60
2019-02-26T14:59:27.356Z,25.90
2019-02-26T15:01:29.056Z,26.00
2019-02-26T15:03:31.065Z,25.90
2019-02-26T15:05:33.124Z,26.20
2019-02-26T15:07:34.823Z,26.20
2019-02-26T15:09:36.515Z,26.20
2019-02-26T15:11:38.239Z,26.30
2019-02-26T15:13:40.007Z,25.90
2019-02-26T15:15:42.161Z,25.80
2019-02-26T15:17:44.421Z,25.60
2019-02-26T15:19:50.208Z,25.60
2019-02-26T15:21:49.879Z,25.70
2019-02-26T15:23:51.689Z,25.20
2019-02-26T15:25:53.486Z,25.00
2019-02-26T15:28:04.253Z,25.10
2019-02-26T15:29:59.680Z,25.40
2019-02-26T15:32:01.489Z,24.40
2019-02-26T15:34:05.764Z,23.90
2019-02-26T15:36:07.829Z,23.60
2019-02-26T15:38:09.521Z,23.40
2019-02-26T15:40:12.061Z,23.30
2019-02-26T15:42:13.882Z,23.50
2019-02-26T15:44:15.703Z,23.40
2019-02-26T15:46:17.625Z,23.50
2019-02-26T15:48:19.344Z,23.40
2019-02-26T15:50:21.269Z,23.30
2019-02-26T15:52:22.986Z,23.40
2019-02-26T15:54:25.305Z,23.50
2019-02-26T15:56:29.781Z,23.90
2019-02-26T15:58:34.177Z,24.00
2019-02-26T16:00:38.003Z,23.50
2019-02-26T16:02:39.505Z,23.30
2019-02-26T16:04:42.757Z,23.40
2019-02-26T16:06:44.547Z,23.20
2019-02-26T16:08:46.573Z,22.90
2019-02-26T16:10:48.389Z,22.50
2019-02-26T16:12:50.685Z,22.40
2019-02-26T16:14:52.525Z,22.30
2019-02-26T16:16:54.238Z,22.10
2019-02-26T16:19:00.406Z,21.90
2019-02-26T16:21:00.137Z,21.70
2019-02-26T16:23:01.896Z,21.10
2019-02-26T16:25:07.445Z,20.90
2019-02-26T16:27:07.330Z,20.70
2019-02-26T16:29:09.283Z,20.20
2019-02-26T16:31:10.989Z,19.90
2019-02-26T16:33:13.719Z,19.40
2019-02-26T16:35:16.925Z,18.90
2019-02-26T16:37:18.634Z,18.50
2019-02-26T16:39:22.584Z,18.10
2019-02-26T16:41:24.132Z,17.90
2019-02-26T16:43:26.108Z,17.60
2019-02-26T16:45:28.063Z,17.20
2019-02-26T16:47:29.881Z,17.00
2019-02-26T16:49:31.669Z,16.80
2019-02-26T16:51:33.500Z,16.50
2019-02-26T16:53:35.213Z,16.30
2019-02-26T16:55:36.999Z,16.20
2019-02-26T16:57:38.794Z,16.00
2019-02-26T16:59:40.879Z,15.90
2019-02-26T17:01:43.309Z,15.70
2019-02-26T17:03:45.124Z,15.60
2019-02-26T17:05:47.602Z,15.50
2019-02-26T17:07:50.034Z,15.30
2019-02-26T17:09:55.475Z,15.20
2019-02-26T17:11:55.408Z,15.20
2019-02-26T17:13:57.101Z,15.00
2019-02-26T17:15:59.552Z,15.00
2019-02-26T17:18:02.309Z,14.80
2019-02-26T17:20:05.317Z,14.70
2019-02-26T17:22:07.006Z,14.60
2019-02-26T17:24:08.800Z,14.60
2019-02-26T17:26:10.504Z,14.50
2019-02-26T17:28:12.848Z,14.40
2019-02-26T17:30:15.025Z,14.30
2019-02-26T17:32:16.888Z,14.20
2019-02-26T17:34:20.610Z,14.20
2019-02-26T17:36:22.304Z,14.10
2019-02-26T17:38:24.003Z,14.00
2019-02-26T17:40:26.713Z,14.00
2019-02-26T17:42:28.437Z,13.90
2019-02-26T17:44:30.214Z,13.90
2019-02-26T17:46:31.929Z,13.70
2019-02-26T17:48:43.090Z,13.70
2019-02-26T17:50:37.332Z,13.60
2019-02-26T17:52:39.167Z,13.60
2019-02-26T17:54:40.857Z,13.50
2019-02-26T17:56:42.553Z,13.50
2019-02-26T17:58:44.560Z,13.20
2019-02-26T18:00:50.265Z,13.10
2019-02-26T18:02:52.108Z,13.10
2019-02-26T18:04:53.865Z,13.10
2019-02-26T18:06:57.836Z,13.20
2019-02-26T18:08:59.296Z,13.00
2019-02-26T18:11:00.988Z,12.80
2019-02-26T18:13:03.090Z,12.60
2019-02-26T18:15:05.829Z,12.40
2019-02-26T18:17:07.517Z,12.20
2019-02-26T18:19:12.240Z,12.20
2019-02-26T18:21:12.820Z,12.30
2019-02-26T18:23:14.525Z,12.40
2019-02-26T18:25:16.661Z,12.50
2019-02-26T18:27:18.362Z,12.50
2019-02-26T18:29:20.070Z,12.60
2019-02-26T18:31:26.513Z,12.60
2019-02-26T18:33:25.572Z,12.60
2019-02-26T18:35:27.390Z,12.60
2019-02-26T18:37:29.109Z,12.50
2019-02-26T18:39:32.412Z,12.50
2019-02-26T18:41:35.258Z,12.40
2019-02-26T18:43:37.593Z,12.40
2019-02-26T18:45:42.032Z,12.30
2019-02-26T18:47:43.729Z,12.00
2019-02-26T18:49:45.417Z,11.80
2019-02-26T18:51:47.161Z,11.80
2019-02-26T18:53:49.117Z,11.80
2019-02-26T18:55:50.869Z,11.80
2019-02-26T18:57:54.401Z,11.80
2019-02-26T18:59:56.265Z,11.90
2019-02-26T19:01:57.961Z,11.90
2019-02-26T19:03:59.656Z,11.90
2019-02-26T19:06:01.470Z,11.80
2019-02-26T19:08:05.607Z,11.80
2019-02-26T19:10:08.901Z,11.70
2019-02-26T19:12:10.612Z,11.70
2019-02-26T19:14:12.313Z,11.60
2019-02-26T19:16:14.048Z,11.60
2019-02-26T19:18:15.773Z,11.60
2019-02-26T19:20:19.689Z,11.50
2019-02-26T19:22:21.402Z,11.40
2019-02-26T19:24:23.117Z,11.30
2019-02-26T19:26:27.908Z,11.30
2019-02-26T19:28:29.734Z,11.20
2019-02-26T19:30:31.613Z,11.10
2019-02-26T19:32:33.325Z,11.10
2019-02-26T19:34:35.014Z,11.10
2019-02-26T19:36:36.724Z,11.00
2019-02-26T19:38:38.633Z,11.00
2019-02-26T19:40:40.931Z,11.00
2019-02-26T19:42:42.709Z,11.00
2019-02-26T19:44:44.728Z,10.90
2019-02-26T19:46:49.392Z,10.90
2019-02-26T19:48:50.017Z,10.80
2019-02-26T19:50:52.032Z,10.80
2019-02-26T19:52:57.013Z,10.80
2019-02-26T19:54:57.522Z,10.80
2019-02-26T19:57:02.114Z,10.70
2019-02-26T19:59:04.050Z,10.70
2019-02-26T20:01:05.746Z,10.70
2019-02-26T20:03:07.479Z,10.70
2019-02-26T20:05:12.201Z,10.70
2019-02-26T20:07:13.365Z,10.70
2019-02-26T20:09:16.606Z,10.70
2019-02-26T20:11:22.577Z,10.70
2019-02-26T20:13:22.091Z,10.60
2019-02-26T20:15:24.029Z,10.60
2019-02-26T20:17:28.837Z,10.60
2019-02-26T20:19:31.904Z,10.50
2019-02-26T20:21:34.480Z,10.60
2019-02-26T20:23:36.190Z,10.50
2019-02-26T20:25:37.891Z,10.50
2019-02-26T20:27:39.923Z,10.50
2019-02-26T20:29:41.616Z,10.40
2019-02-26T20:31:43.319Z,10.30
2019-02-26T20:33:45.043Z,10.30
2019-02-26T20:35:46.725Z,10.30
2019-02-26T20:37:48.436Z,10.20
2019-02-26T20:39:50.256Z,10.20
2019-02-26T20:41:55.515Z,10.20
2019-02-26T20:43:55.717Z,10.20
2019-02-26T20:45:57.417Z,10.20
2019-02-26T20:47:59.170Z,10.20
2019-02-26T20:50:00.939Z,10.20
2019-02-26T20:52:02.630Z,10.10
2019-02-26T20:54:04.326Z,9.90
2019-02-26T20:56:06.128Z,9.80
2019-02-26T20:58:09.680Z,9.50
2019-02-26T21:00:13.795Z,9.40
2019-02-26T21:02:15.489Z,9.40
2019-02-26T21:04:17.508Z,9.20
2019-02-26T21:06:19.213Z,9.10
2019-02-26T21:08:20.925Z,9.00
2019-02-26T21:10:22.628Z,8.80
2019-02-26T21:12:28.614Z,8.80
2019-02-26T21:14:28.160Z,8.70
2019-02-26T21:16:29.865Z,8.70
2019-02-26T21:18:31.565Z,8.60
2019-02-26T21:20:33.280Z,8.60
2019-02-26T21:22:34.987Z,8.50
2019-02-26T21:24:36.687Z,8.40
2019-02-26T21:26:38.397Z,8.40
2019-02-26T21:28:40.145Z,8.40
2019-02-26T21:30:45.662Z,8.40
2019-02-26T21:32:45.798Z,8.50
2019-02-26T21:34:48.020Z,8.50
2019-02-26T21:36:49.825Z,8.50
2019-02-26T21:38:51.640Z,8.50
2019-02-26T21:40:53.439Z,8.50
2019-02-26T21:42:55.163Z,8.50
2019-02-26T21:44:56.905Z,8.60
2019-02-26T21:46:58.611Z,8.60
2019-02-26T21:49:00.345Z,8.60
2019-02-26T21:51:02.164Z,8.60
2019-02-26T21:53:03.900Z,8.60
2019-02-26T21:55:06.321Z,8.60
2019-02-26T21:57:08.034Z,8.60
2019-02-26T21:59:09.863Z,8.60
2019-02-26T22:01:12.174Z,8.60
2019-02-26T22:03:14.126Z,8.50
2019-02-26T22:05:15.981Z,8.40
2019-02-26T22:07:19.183Z,8.40
2019-02-26T22:09:21.298Z,8.30
2019-02-26T22:11:24.212Z,8.20
2019-02-26T22:13:29.097Z,8.20
2019-02-26T22:15:29.697Z,8.30
2019-02-26T22:17:31.489Z,8.30
2019-02-26T22:19:33.230Z,8.20
2019-02-26T22:21:34.955Z,8.20
2019-02-26T22:23:36.695Z,8.20
2019-02-26T22:25:38.460Z,8.10
2019-02-26T22:27:40.277Z,8.10
2019-02-26T22:29:41.989Z,8.00
2019-02-26T22:31:43.801Z,7.90
2019-02-26T22:33:46.408Z,7.80
2019-02-26T22:35:48.208Z,7.70
2019-02-26T22:37:50.035Z,7.70
2019-02-26T22:39:53.603Z,7.60
2019-02-26T22:41:55.373Z,7.50
2019-02-26T22:43:57.108Z,7.50
2019-02-26T22:46:01.033Z,7.60
2019-02-26T22:48:02.455Z,7.80
2019-02-26T22:50:05.514Z,7.90
2019-02-26T22:52:07.309Z,8.00
2019-02-26T22:54:09.878Z,8.10
2019-02-26T22:56:12.206Z,8.20
2019-02-26T22:58:13.920Z,8.20
2019-02-26T23:00:48.239Z,8.20
2019-02-26T23:02:47.211Z,8.30
2019-02-26T23:04:52.578Z,8.30
2019-02-26T23:06:52.548Z,8.30
2019-02-26T23:08:54.365Z,8.30
2019-02-26T23:10:57.391Z,8.30
2019-02-26T23:12:59.891Z,8.30
2019-02-26T23:15:02.083Z,8.30
2019-02-26T23:17:05.117Z,8.40
2019-02-26T23:19:07.213Z,8.40
2019-02-26T23:21:10.274Z,8.40
2019-02-26T23:23:12.670Z,8.40
2019-02-26T23:25:14.781Z,8.30
2019-02-26T23:27:16.809Z,8.30
2019-02-26T23:29:18.820Z,8.20
2019-02-26T23:31:21.824Z,8.20
2019-02-26T23:33:23.544Z,8.20
2019-02-26T23:35:25.445Z,8.20
2019-02-26T23:37:27.566Z,8.30
2019-02-26T23:39:29.777Z,8.20
2019-02-26T23:41:33.047Z,8.30
2019-02-26T23:43:35.282Z,8.20
2019-02-26T23:45:37.219Z,8.20
2019-02-26T23:47:39.462Z,8.20
2019-02-26T23:49:41.176Z,8.20
2019-02-26T23:51:42.889Z,8.10
2019-02-26T23:53:44.608Z,8.00
2019-02-26T23:55:47.347Z,7.90
2019-02-26T23:57:49.259Z,7.80
2019-02-26T23:59:50.973Z,7.70
